sensor_id;sensor_type;location;lat;lon;timestamp;P1;durP1;ratioP1;P2;durP2;ratioP2
26690;SDS011;14307;51.718;8.938;2024-02-26T00:02:09;14.93;;;14.00;;
26690;SDS011;14307;51.718;8.938;2024-02-26T00:04:36;14.82;;;14.02;;
26690;SDS011;14307;51.718;8.938;2024-02-26T00:07:03;15.25;;;14.27;;
26690;SDS011;14307;51.718;8.938;2024-02-26T00:09:30;15.13;;;14.32;;
26690;SDS011;14307;51.718;8.938;2024-02-26T00:11:57;15.18;;;14.40;;
26690;SDS011;14307;51.718;8.938;2024-02-26T00:14:26;15.90;;;14.93;;
26690;SDS011;14307;51.718;8.938;2024-02-26T00:16:53;15.75;;;14.75;;
26690;SDS011;14307;51.718;8.938;2024-02-26T00:19:19;15.60;;;14.70;;
26690;SDS011;14307;51.718;8.938;2024-02-26T00:21:46;14.82;;;14.07;;
26690;SDS011;14307;51.718;8.938;2024-02-26T00:24:13;15.27;;;14.38;;
26690;SDS011;14307;51.718;8.938;2024-02-26T00:26:41;15.30;;;14.50;;
26690;SDS011;14307;51.718;8.938;2024-02-26T00:29:07;14.93;;;14.18;;
26690;SDS011;14307;51.718;8.938;2024-02-26T00:31:34;15.63;;;14.82;;
26690;SDS011;14307;51.718;8.938;2024-02-26T00:34:03;15.20;;;14.30;;
26690;SDS011;14307;51.718;8.938;2024-02-26T00:36:30;15.43;;;14.52;;
26690;SDS011;14307;51.718;8.938;2024-02-26T00:38:57;15.40;;;14.60;;
26690;SDS011;14307;51.718;8.938;2024-02-26T00:41:24;15.73;;;14.77;;
26690;SDS011;14307;51.718;8.938;2024-02-26T00:43:50;16.67;;;15.63;;
26690;SDS011;14307;51.718;8.938;2024-02-26T00:46:17;16.02;;;14.98;;
26690;SDS011;14307;51.718;8.938;2024-02-26T00:48:44;16.30;;;15.25;;
26690;SDS011;14307;51.718;8.938;2024-02-26T00:51:11;15.93;;;15.05;;
26690;SDS011;14307;51.718;8.938;2024-02-26T00:53:38;15.40;;;14.50;;
26690;SDS011;14307;51.718;8.938;2024-02-26T00:56:05;15.75;;;14.95;;
26690;SDS011;14307;51.718;8.938;2024-02-26T00:58:32;16.15;;;15.35;;
26690;SDS011;14307;51.718;8.938;2024-02-26T01:00:59;15.88;;;14.77;;
26690;SDS011;14307;51.718;8.938;2024-02-26T01:03:26;15.43;;;14.63;;
26690;SDS011;14307;51.718;8.938;2024-02-26T01:05:53;15.88;;;14.75;;
26690;SDS011;14307;51.718;8.938;2024-02-26T01:08:24;15.18;;;14.38;;
26690;SDS011;14307;51.718;8.938;2024-02-26T01:10:51;14.95;;;14.25;;
26690;SDS011;14307;51.718;8.938;2024-02-26T01:13:18;15.13;;;14.43;;
26690;SDS011;14307;51.718;8.938;2024-02-26T01:15:44;15.60;;;14.60;;
26690;SDS011;14307;51.718;8.938;2024-02-26T01:18:11;15.50;;;14.60;;
26690;SDS011;14307;51.718;8.938;2024-02-26T01:20:38;15.52;;;14.63;;
26690;SDS011;14307;51.718;8.938;2024-02-26T01:23:05;15.85;;;15.05;;
26690;SDS011;14307;51.718;8.938;2024-02-26T01:25:32;15.85;;;14.95;;
26690;SDS011;14307;51.718;8.938;2024-02-26T01:27:59;15.38;;;14.68;;
26690;SDS011;14307;51.718;8.938;2024-02-26T01:30:26;15.60;;;14.80;;
26690;SDS011;14307;51.718;8.938;2024-02-26T01:32:53;15.35;;;14.55;;
26690;SDS011;14307;51.718;8.938;2024-02-26T01:35:20;15.52;;;14.73;;
26690;SDS011;14307;51.718;8.938;2024-02-26T01:37:47;15.52;;;14.80;;
26690;SDS011;14307;51.718;8.938;2024-02-26T01:40:13;15.50;;;14.68;;
26690;SDS011;14307;51.718;8.938;2024-02-26T01:42:46;15.60;;;14.57;;
26690;SDS011;14307;51.718;8.938;2024-02-26T01:45:16;15.30;;;14.30;;
26690;SDS011;14307;51.718;8.938;2024-02-26T01:47:50;15.82;;;14.82;;
26690;SDS011;14307;51.718;8.938;2024-02-26T01:50:19;15.60;;;14.80;;
26690;SDS011;14307;51.718;8.938;2024-02-26T01:52:48;15.50;;;14.70;;
26690;SDS011;14307;51.718;8.938;2024-02-26T01:55:19;15.48;;;14.77;;
26690;SDS011;14307;51.718;8.938;2024-02-26T01:57:48;16.15;;;15.35;;
26690;SDS011;14307;51.718;8.938;2024-02-26T02:00:17;16.27;;;15.30;;
26690;SDS011;14307;51.718;8.938;2024-02-26T02:02:45;16.42;;;15.43;;
26690;SDS011;14307;51.718;8.938;2024-02-26T02:05:15;16.02;;;15.18;;
26690;SDS011;14307;51.718;8.938;2024-02-26T02:07:43;16.00;;;15.20;;
26690;SDS011;14307;51.718;8.938;2024-02-26T02:10:10;16.27;;;15.27;;
26690;SDS011;14307;51.718;8.938;2024-02-26T02:12:37;16.40;;;15.32;;
26690;SDS011;14307;51.718;8.938;2024-02-26T02:15:06;15.90;;;15.00;;
26690;SDS011;14307;51.718;8.938;2024-02-26T02:17:34;15.45;;;14.75;;
26690;SDS011;14307;51.718;8.938;2024-02-26T02:20:01;15.25;;;14.55;;
26690;SDS011;14307;51.718;8.938;2024-02-26T02:22:30;15.50;;;14.80;;
26690;SDS011;14307;51.718;8.938;2024-02-26T02:24:58;15.25;;;14.55;;
26690;SDS011;14307;51.718;8.938;2024-02-26T02:27:27;15.80;;;15.00;;
26690;SDS011;14307;51.718;8.938;2024-02-26T02:29:55;16.05;;;15.15;;
26690;SDS011;14307;51.718;8.938;2024-02-26T02:32:22;15.98;;;15.18;;
26690;SDS011;14307;51.718;8.938;2024-02-26T02:34:51;16.10;;;15.30;;
26690;SDS011;14307;51.718;8.938;2024-02-26T02:37:18;15.75;;;14.95;;
26690;SDS011;14307;51.718;8.938;2024-02-26T02:39:44;15.82;;;15.10;;
26690;SDS011;14307;51.718;8.938;2024-02-26T02:42:12;16.27;;;15.38;;
26690;SDS011;14307;51.718;8.938;2024-02-26T02:44:39;16.20;;;15.40;;
26690;SDS011;14307;51.718;8.938;2024-02-26T02:47:06;15.82;;;15.02;;
26690;SDS011;14307;51.718;8.938;2024-02-26T02:49:33;15.85;;;15.05;;
26690;SDS011;14307;51.718;8.938;2024-02-26T02:52:00;15.98;;;15.18;;
26690;SDS011;14307;51.718;8.938;2024-02-26T02:54:27;16.48;;;15.68;;
26690;SDS011;14307;51.718;8.938;2024-02-26T02:56:54;17.00;;;16.10;;
26690;SDS011;14307;51.718;8.938;2024-02-26T02:59:21;16.83;;;15.90;;
26690;SDS011;14307;51.718;8.938;2024-02-26T03:01:48;16.55;;;15.70;;
26690;SDS011;14307;51.718;8.938;2024-02-26T03:04:15;16.70;;;15.65;;
26690;SDS011;14307;51.718;8.938;2024-02-26T03:06:42;16.30;;;15.48;;
26690;SDS011;14307;51.718;8.938;2024-02-26T03:09:09;16.27;;;15.38;;
26690;SDS011;14307;51.718;8.938;2024-02-26T03:11:36;16.88;;;15.88;;
26690;SDS011;14307;51.718;8.938;2024-02-26T03:14:03;16.65;;;15.75;;
26690;SDS011;14307;51.718;8.938;2024-02-26T03:16:31;16.98;;;16.02;;
26690;SDS011;14307;51.718;8.938;2024-02-26T03:18:58;16.95;;;15.85;;
26690;SDS011;14307;51.718;8.938;2024-02-26T03:21:25;16.75;;;15.85;;
26690;SDS011;14307;51.718;8.938;2024-02-26T03:23:53;16.33;;;15.52;;
26690;SDS011;14307;51.718;8.938;2024-02-26T03:26:20;16.52;;;15.63;;
26690;SDS011;14307;51.718;8.938;2024-02-26T03:28:47;16.70;;;15.65;;
26690;SDS011;14307;51.718;8.938;2024-02-26T03:31:14;17.00;;;16.10;;
26690;SDS011;14307;51.718;8.938;2024-02-26T03:33:41;17.30;;;16.20;;
26690;SDS011;14307;51.718;8.938;2024-02-26T03:36:08;16.80;;;15.90;;
26690;SDS011;14307;51.718;8.938;2024-02-26T03:38:35;17.40;;;16.30;;
26690;SDS011;14307;51.718;8.938;2024-02-26T03:41:03;17.33;;;16.33;;
26690;SDS011;14307;51.718;8.938;2024-02-26T03:43:30;17.33;;;16.27;;
26690;SDS011;14307;51.718;8.938;2024-02-26T03:45:56;17.17;;;16.25;;
26690;SDS011;14307;51.718;8.938;2024-02-26T03:48:23;17.17;;;16.23;;
26690;SDS011;14307;51.718;8.938;2024-02-26T03:50:50;17.63;;;16.52;;
26690;SDS011;14307;51.718;8.938;2024-02-26T03:53:17;17.10;;;16.15;;
26690;SDS011;14307;51.718;8.938;2024-02-26T03:55:44;16.88;;;15.98;;
26690;SDS011;14307;51.718;8.938;2024-02-26T03:58:12;16.90;;;15.90;;
26690;SDS011;14307;51.718;8.938;2024-02-26T04:00:39;17.48;;;16.48;;
26690;SDS011;14307;51.718;8.938;2024-02-26T04:03:06;16.95;;;15.85;;
26690;SDS011;14307;51.718;8.938;2024-02-26T04:05:32;16.77;;;15.88;;
26690;SDS011;14307;51.718;8.938;2024-02-26T04:07:59;17.80;;;16.75;;
26690;SDS011;14307;51.718;8.938;2024-02-26T04:10:26;17.42;;;16.42;;
26690;SDS011;14307;51.718;8.938;2024-02-26T04:12:53;17.60;;;16.50;;
26690;SDS011;14307;51.718;8.938;2024-02-26T04:15:19;17.48;;;16.20;;
26690;SDS011;14307;51.718;8.938;2024-02-26T04:17:46;17.60;;;16.60;;
26690;SDS011;14307;51.718;8.938;2024-02-26T04:20:14;16.88;;;15.98;;
26690;SDS011;14307;51.718;8.938;2024-02-26T04:22:42;17.25;;;16.30;;
26690;SDS011;14307;51.718;8.938;2024-02-26T04:25:09;18.27;;;17.20;;
26690;SDS011;14307;51.718;8.938;2024-02-26T04:27:36;17.67;;;16.67;;
26690;SDS011;14307;51.718;8.938;2024-02-26T04:30:03;17.30;;;16.30;;
26690;SDS011;14307;51.718;8.938;2024-02-26T04:32:31;17.98;;;16.88;;
26690;SDS011;14307;51.718;8.938;2024-02-26T04:34:58;18.40;;;17.17;;
26690;SDS011;14307;51.718;8.938;2024-02-26T04:37:25;18.55;;;17.45;;
26690;SDS011;14307;51.718;8.938;2024-02-26T04:40:00;18.10;;;17.00;;
26690;SDS011;14307;51.718;8.938;2024-02-26T04:42:28;17.92;;;16.85;;
26690;SDS011;14307;51.718;8.938;2024-02-26T04:44:55;18.45;;;17.17;;
26690;SDS011;14307;51.718;8.938;2024-02-26T04:47:22;18.42;;;17.27;;
26690;SDS011;14307;51.718;8.938;2024-02-26T04:49:49;18.60;;;17.42;;
26690;SDS011;14307;51.718;8.938;2024-02-26T04:52:17;19.00;;;17.65;;
26690;SDS011;14307;51.718;8.938;2024-02-26T04:54:44;18.67;;;17.55;;
26690;SDS011;14307;51.718;8.938;2024-02-26T04:57:11;17.92;;;16.92;;
26690;SDS011;14307;51.718;8.938;2024-02-26T04:59:38;18.20;;;17.20;;
26690;SDS011;14307;51.718;8.938;2024-02-26T05:02:07;18.67;;;17.58;;
26690;SDS011;14307;51.718;8.938;2024-02-26T05:04:34;18.77;;;17.67;;
26690;SDS011;14307;51.718;8.938;2024-02-26T05:07:01;19.30;;;18.10;;
26690;SDS011;14307;51.718;8.938;2024-02-26T05:09:29;19.27;;;17.98;;
26690;SDS011;14307;51.718;8.938;2024-02-26T05:11:55;19.20;;;18.10;;
26690;SDS011;14307;51.718;8.938;2024-02-26T05:14:22;19.50;;;18.27;;
26690;SDS011;14307;51.718;8.938;2024-02-26T05:16:49;19.08;;;17.98;;
26690;SDS011;14307;51.718;8.938;2024-02-26T05:19:16;19.23;;;17.85;;
26690;SDS011;14307;51.718;8.938;2024-02-26T05:21:43;19.52;;;18.33;;
26690;SDS011;14307;51.718;8.938;2024-02-26T05:24:10;18.85;;;17.85;;
26690;SDS011;14307;51.718;8.938;2024-02-26T05:26:37;19.50;;;18.30;;
26690;SDS011;14307;51.718;8.938;2024-02-26T05:29:04;19.23;;;18.02;;
26690;SDS011;14307;51.718;8.938;2024-02-26T05:31:32;19.67;;;18.58;;
26690;SDS011;14307;51.718;8.938;2024-02-26T05:33:58;19.77;;;18.58;;
26690;SDS011;14307;51.718;8.938;2024-02-26T05:36:26;19.70;;;18.40;;
26690;SDS011;14307;51.718;8.938;2024-02-26T05:38:54;19.52;;;18.25;;
26690;SDS011;14307;51.718;8.938;2024-02-26T05:41:21;19.13;;;17.83;;
26690;SDS011;14307;51.718;8.938;2024-02-26T05:43:52;19.83;;;18.63;;
26690;SDS011;14307;51.718;8.938;2024-02-26T05:46:20;19.27;;;18.17;;
26690;SDS011;14307;51.718;8.938;2024-02-26T05:48:49;19.70;;;18.50;;
26690;SDS011;14307;51.718;8.938;2024-02-26T05:51:18;19.60;;;18.30;;
26690;SDS011;14307;51.718;8.938;2024-02-26T05:53:45;19.55;;;18.40;;
26690;SDS011;14307;51.718;8.938;2024-02-26T05:56:13;20.15;;;18.73;;
26690;SDS011;14307;51.718;8.938;2024-02-26T05:58:40;20.25;;;18.95;;
26690;SDS011;14307;51.718;8.938;2024-02-26T06:01:06;19.60;;;18.40;;
26690;SDS011;14307;51.718;8.938;2024-02-26T06:03:33;19.83;;;18.63;;
26690;SDS011;14307;51.718;8.938;2024-02-26T06:06:01;20.15;;;18.77;;
26690;SDS011;14307;51.718;8.938;2024-02-26T06:08:28;20.15;;;18.85;;
26690;SDS011;14307;51.718;8.938;2024-02-26T06:10:55;20.08;;;18.73;;
26690;SDS011;14307;51.718;8.938;2024-02-26T06:13:22;19.75;;;18.45;;
26690;SDS011;14307;51.718;8.938;2024-02-26T06:15:48;19.98;;;18.77;;
26690;SDS011;14307;51.718;8.938;2024-02-26T06:18:15;19.63;;;18.42;;
26690;SDS011;14307;51.718;8.938;2024-02-26T06:20:42;20.05;;;18.65;;
26690;SDS011;14307;51.718;8.938;2024-02-26T06:23:09;20.15;;;18.67;;
26690;SDS011;14307;51.718;8.938;2024-02-26T06:25:36;22.50;;;21.10;;
26690;SDS011;14307;51.718;8.938;2024-02-26T06:28:03;19.55;;;18.15;;
26690;SDS011;14307;51.718;8.938;2024-02-26T06:30:30;19.83;;;18.63;;
26690;SDS011;14307;51.718;8.938;2024-02-26T06:32:57;19.63;;;18.42;;
26690;SDS011;14307;51.718;8.938;2024-02-26T06:35:24;19.35;;;18.15;;
26690;SDS011;14307;51.718;8.938;2024-02-26T06:37:51;20.38;;;19.08;;
26690;SDS011;14307;51.718;8.938;2024-02-26T06:40:19;19.83;;;18.52;;
26690;SDS011;14307;51.718;8.938;2024-02-26T06:42:46;19.38;;;18.02;;
26690;SDS011;14307;51.718;8.938;2024-02-26T06:45:15;18.88;;;17.67;;
26690;SDS011;14307;51.718;8.938;2024-02-26T06:47:42;21.45;;;20.20;;
26690;SDS011;14307;51.718;8.938;2024-02-26T06:50:11;26.95;;;25.55;;
26690;SDS011;14307;51.718;8.938;2024-02-26T06:52:38;25.88;;;24.48;;
26690;SDS011;14307;51.718;8.938;2024-02-26T06:55:05;27.08;;;25.58;;
26690;SDS011;14307;51.718;8.938;2024-02-26T06:57:34;27.80;;;26.05;;
26690;SDS011;14307;51.718;8.938;2024-02-26T07:00:02;26.45;;;24.95;;
26690;SDS011;14307;51.718;8.938;2024-02-26T07:02:30;25.88;;;24.33;;
26690;SDS011;14307;51.718;8.938;2024-02-26T07:04:57;26.52;;;24.90;;
26690;SDS011;14307;51.718;8.938;2024-02-26T07:07:24;25.45;;;23.98;;
26690;SDS011;14307;51.718;8.938;2024-02-26T07:09:52;25.60;;;24.15;;
26690;SDS011;14307;51.718;8.938;2024-02-26T07:12:18;24.75;;;23.35;;
26690;SDS011;14307;51.718;8.938;2024-02-26T07:14:47;24.67;;;23.13;;
26690;SDS011;14307;51.718;8.938;2024-02-26T07:17:15;24.73;;;23.27;;
26690;SDS011;14307;51.718;8.938;2024-02-26T07:19:42;24.17;;;22.75;;
26690;SDS011;14307;51.718;8.938;2024-02-26T07:22:09;23.15;;;21.85;;
26690;SDS011;14307;51.718;8.938;2024-02-26T07:24:36;24.88;;;23.33;;
26690;SDS011;14307;51.718;8.938;2024-02-26T07:27:03;23.73;;;22.17;;
26690;SDS011;14307;51.718;8.938;2024-02-26T07:29:30;23.50;;;21.80;;
26690;SDS011;14307;51.718;8.938;2024-02-26T07:31:57;24.58;;;23.08;;
26690;SDS011;14307;51.718;8.938;2024-02-26T07:34:24;25.35;;;23.85;;
26690;SDS011;14307;51.718;8.938;2024-02-26T07:36:56;24.42;;;22.83;;
26690;SDS011;14307;51.718;8.938;2024-02-26T07:39:23;25.63;;;24.02;;
26690;SDS011;14307;51.718;8.938;2024-02-26T07:41:50;24.67;;;23.15;;
26690;SDS011;14307;51.718;8.938;2024-02-26T07:44:19;24.05;;;22.73;;
26690;SDS011;14307;51.718;8.938;2024-02-26T07:46:46;25.02;;;23.42;;
26690;SDS011;14307;51.718;8.938;2024-02-26T07:49:13;25.60;;;24.00;;
26690;SDS011;14307;51.718;8.938;2024-02-26T07:51:40;27.70;;;25.90;;
26690;SDS011;14307;51.718;8.938;2024-02-26T07:54:08;26.83;;;24.75;;
26690;SDS011;14307;51.718;8.938;2024-02-26T07:56:35;26.92;;;25.13;;
26690;SDS011;14307;51.718;8.938;2024-02-26T07:59:01;31.63;;;29.05;;
26690;SDS011;14307;51.718;8.938;2024-02-26T08:01:28;26.92;;;25.33;;
26690;SDS011;14307;51.718;8.938;2024-02-26T08:03:55;26.90;;;25.30;;
26690;SDS011;14307;51.718;8.938;2024-02-26T08:06:23;31.30;;;29.08;;
26690;SDS011;14307;51.718;8.938;2024-02-26T08:08:51;30.85;;;28.85;;
26690;SDS011;14307;51.718;8.938;2024-02-26T08:11:18;32.03;;;29.80;;
26690;SDS011;14307;51.718;8.938;2024-02-26T08:13:45;31.85;;;29.77;;
26690;SDS011;14307;51.718;8.938;2024-02-26T08:16:12;34.72;;;32.22;;
26690;SDS011;14307;51.718;8.938;2024-02-26T08:18:38;33.40;;;31.50;;
26690;SDS011;14307;51.718;8.938;2024-02-26T08:21:06;26.90;;;25.30;;
26690;SDS011;14307;51.718;8.938;2024-02-26T08:23:34;26.50;;;24.70;;
26690;SDS011;14307;51.718;8.938;2024-02-26T08:26:01;25.85;;;24.27;;
26690;SDS011;14307;51.718;8.938;2024-02-26T08:28:30;27.50;;;25.73;;
26690;SDS011;14307;51.718;8.938;2024-02-26T08:30:57;28.05;;;26.35;;
26690;SDS011;14307;51.718;8.938;2024-02-26T08:33:24;26.10;;;24.40;;
26690;SDS011;14307;51.718;8.938;2024-02-26T08:35:51;27.00;;;25.30;;
26690;SDS011;14307;51.718;8.938;2024-02-26T08:38:18;29.05;;;27.05;;
26690;SDS011;14307;51.718;8.938;2024-02-26T08:40:45;29.90;;;27.73;;
26690;SDS011;14307;51.718;8.938;2024-02-26T08:43:12;30.63;;;28.38;;
26690;SDS011;14307;51.718;8.938;2024-02-26T08:45:39;28.65;;;26.65;;
26690;SDS011;14307;51.718;8.938;2024-02-26T08:48:06;27.08;;;25.27;;
26690;SDS011;14307;51.718;8.938;2024-02-26T08:50:34;26.80;;;25.02;;
26690;SDS011;14307;51.718;8.938;2024-02-26T08:53:01;27.50;;;25.70;;
26690;SDS011;14307;51.718;8.938;2024-02-26T08:55:33;29.33;;;26.90;;
26690;SDS011;14307;51.718;8.938;2024-02-26T08:58:00;31.77;;;29.48;;
26690;SDS011;14307;51.718;8.938;2024-02-26T09:00:28;30.58;;;28.27;;
26690;SDS011;14307;51.718;8.938;2024-02-26T09:02:55;28.95;;;26.65;;
26690;SDS011;14307;51.718;8.938;2024-02-26T09:05:22;27.70;;;25.92;;
26690;SDS011;14307;51.718;8.938;2024-02-26T09:07:49;28.27;;;26.38;;
26690;SDS011;14307;51.718;8.938;2024-02-26T09:10:18;31.42;;;29.13;;
26690;SDS011;14307;51.718;8.938;2024-02-26T09:12:44;28.77;;;26.77;;
26690;SDS011;14307;51.718;8.938;2024-02-26T09:15:11;28.42;;;26.63;;
26690;SDS011;14307;51.718;8.938;2024-02-26T09:17:38;29.15;;;27.17;;
26690;SDS011;14307;51.718;8.938;2024-02-26T09:20:05;28.85;;;26.98;;
26690;SDS011;14307;51.718;8.938;2024-02-26T09:22:35;28.92;;;27.00;;
26690;SDS011;14307;51.718;8.938;2024-02-26T09:25:04;29.02;;;27.33;;
26690;SDS011;14307;51.718;8.938;2024-02-26T09:27:32;28.80;;;26.90;;
26690;SDS011;14307;51.718;8.938;2024-02-26T09:29:59;30.13;;;28.02;;
26690;SDS011;14307;51.718;8.938;2024-02-26T09:32:26;29.30;;;27.42;;
26690;SDS011;14307;51.718;8.938;2024-02-26T09:34:53;29.08;;;27.05;;
26690;SDS011;14307;51.718;8.938;2024-02-26T09:37:20;28.55;;;26.77;;
26690;SDS011;14307;51.718;8.938;2024-02-26T09:39:48;29.30;;;27.40;;
26690;SDS011;14307;51.718;8.938;2024-02-26T09:42:14;27.42;;;25.80;;
26690;SDS011;14307;51.718;8.938;2024-02-26T09:44:46;28.58;;;26.67;;
26690;SDS011;14307;51.718;8.938;2024-02-26T09:47:16;29.55;;;27.75;;
26690;SDS011;14307;51.718;8.938;2024-02-26T09:49:46;28.35;;;26.65;;
26690;SDS011;14307;51.718;8.938;2024-02-26T09:52:15;29.23;;;27.23;;
26690;SDS011;14307;51.718;8.938;2024-02-26T09:54:46;28.60;;;26.80;;
26690;SDS011;14307;51.718;8.938;2024-02-26T09:57:15;27.40;;;25.80;;
26690;SDS011;14307;51.718;8.938;2024-02-26T09:59:44;28.52;;;26.67;;
26690;SDS011;14307;51.718;8.938;2024-02-26T10:02:13;28.48;;;26.77;;
26690;SDS011;14307;51.718;8.938;2024-02-26T10:04:40;28.25;;;26.65;;
26690;SDS011;14307;51.718;8.938;2024-02-26T10:07:14;29.88;;;28.08;;
26690;SDS011;14307;51.718;8.938;2024-02-26T10:09:42;28.65;;;26.80;;
26690;SDS011;14307;51.718;8.938;2024-02-26T10:12:09;31.30;;;29.40;;
26690;SDS011;14307;51.718;8.938;2024-02-26T10:14:38;30.65;;;28.55;;
26690;SDS011;14307;51.718;8.938;2024-02-26T10:17:07;28.48;;;26.58;;
26690;SDS011;14307;51.718;8.938;2024-02-26T10:19:37;31.00;;;28.95;;
26690;SDS011;14307;51.718;8.938;2024-02-26T10:22:05;30.95;;;28.95;;
26690;SDS011;14307;51.718;8.938;2024-02-26T10:24:32;31.27;;;29.27;;
26690;SDS011;14307;51.718;8.938;2024-02-26T10:27:01;29.65;;;27.65;;
26690;SDS011;14307;51.718;8.938;2024-02-26T10:29:28;34.15;;;31.95;;
26690;SDS011;14307;51.718;8.938;2024-02-26T10:31:55;32.78;;;30.73;;
26690;SDS011;14307;51.718;8.938;2024-02-26T10:34:22;34.15;;;32.03;;
26690;SDS011;14307;51.718;8.938;2024-02-26T10:36:50;35.38;;;33.00;;
26690;SDS011;14307;51.718;8.938;2024-02-26T10:39:20;32.65;;;30.52;;
26690;SDS011;14307;51.718;8.938;2024-02-26T10:41:48;33.22;;;31.08;;
26690;SDS011;14307;51.718;8.938;2024-02-26T10:44:16;33.75;;;31.35;;
26690;SDS011;14307;51.718;8.938;2024-02-26T10:46:46;33.08;;;30.75;;
26690;SDS011;14307;51.718;8.938;2024-02-26T10:49:15;32.53;;;30.33;;
26690;SDS011;14307;51.718;8.938;2024-02-26T10:51:50;32.40;;;30.35;;
26690;SDS011;14307;51.718;8.938;2024-02-26T10:54:29;31.52;;;29.52;;
26690;SDS011;14307;51.718;8.938;2024-02-26T10:56:58;32.70;;;30.60;;
26690;SDS011;14307;51.718;8.938;2024-02-26T10:59:26;31.73;;;29.67;;
26690;SDS011;14307;51.718;8.938;2024-02-26T11:01:53;32.60;;;30.38;;
26690;SDS011;14307;51.718;8.938;2024-02-26T11:04:21;31.30;;;29.20;;
26690;SDS011;14307;51.718;8.938;2024-02-26T11:06:49;31.38;;;29.38;;
26690;SDS011;14307;51.718;8.938;2024-02-26T11:09:16;30.30;;;28.20;;
26690;SDS011;14307;51.718;8.938;2024-02-26T11:11:45;32.20;;;29.92;;
26690;SDS011;14307;51.718;8.938;2024-02-26T11:14:14;31.77;;;29.77;;
26690;SDS011;14307;51.718;8.938;2024-02-26T11:16:42;32.92;;;30.92;;
26690;SDS011;14307;51.718;8.938;2024-02-26T11:19:10;34.92;;;32.40;;
26690;SDS011;14307;51.718;8.938;2024-02-26T11:21:40;32.03;;;30.13;;
26690;SDS011;14307;51.718;8.938;2024-02-26T11:24:09;36.30;;;33.85;;
26690;SDS011;14307;51.718;8.938;2024-02-26T11:26:42;33.65;;;31.38;;
26690;SDS011;14307;51.718;8.938;2024-02-26T11:29:49;33.30;;;31.10;;
26690;SDS011;14307;51.718;8.938;2024-02-26T11:32:18;31.90;;;29.70;;
26690;SDS011;14307;51.718;8.938;2024-02-26T11:34:45;30.55;;;28.65;;
26690;SDS011;14307;51.718;8.938;2024-02-26T11:37:16;32.10;;;29.88;;
26690;SDS011;14307;51.718;8.938;2024-02-26T11:39:44;31.85;;;29.75;;
26690;SDS011;14307;51.718;8.938;2024-02-26T11:42:15;31.80;;;29.63;;
26690;SDS011;14307;51.718;8.938;2024-02-26T11:44:42;31.45;;;29.17;;
26690;SDS011;14307;51.718;8.938;2024-02-26T11:47:13;30.85;;;28.83;;
26690;SDS011;14307;51.718;8.938;2024-02-26T11:49:44;32.33;;;29.98;;
26690;SDS011;14307;51.718;8.938;2024-02-26T11:52:11;35.33;;;32.58;;
26690;SDS011;14307;51.718;8.938;2024-02-26T11:57:28;34.22;;;31.48;;
26690;SDS011;14307;51.718;8.938;2024-02-26T12:00:02;34.60;;;32.05;;
26690;SDS011;14307;51.718;8.938;2024-02-26T12:02:45;35.10;;;32.45;;
26690;SDS011;14307;51.718;8.938;2024-02-26T12:05:14;32.97;;;30.67;;
26690;SDS011;14307;51.718;8.938;2024-02-26T12:10:24;32.15;;;29.77;;
26690;SDS011;14307;51.718;8.938;2024-02-26T12:12:53;32.28;;;29.75;;
26690;SDS011;14307;51.718;8.938;2024-02-26T12:15:31;35.47;;;32.67;;
26690;SDS011;14307;51.718;8.938;2024-02-26T12:18:00;39.67;;;36.67;;
26690;SDS011;14307;51.718;8.938;2024-02-26T12:20:29;38.67;;;35.83;;
26690;SDS011;14307;51.718;8.938;2024-02-26T12:22:56;38.38;;;35.60;;
26690;SDS011;14307;51.718;8.938;2024-02-26T12:25:24;38.90;;;36.15;;
26690;SDS011;14307;51.718;8.938;2024-02-26T12:27:53;40.33;;;37.42;;
26690;SDS011;14307;51.718;8.938;2024-02-26T12:30:20;40.53;;;37.65;;
26690;SDS011;14307;51.718;8.938;2024-02-26T12:32:48;38.22;;;35.33;;
26690;SDS011;14307;51.718;8.938;2024-02-26T12:35:17;40.63;;;37.92;;
26690;SDS011;14307;51.718;8.938;2024-02-26T12:37:44;40.50;;;37.45;;
26690;SDS011;14307;51.718;8.938;2024-02-26T12:40:12;42.65;;;39.30;;
26690;SDS011;14307;51.718;8.938;2024-02-26T12:42:39;42.72;;;39.33;;
26690;SDS011;14307;51.718;8.938;2024-02-26T12:45:08;41.60;;;38.50;;
26690;SDS011;14307;51.718;8.938;2024-02-26T12:47:39;41.05;;;37.53;;
26690;SDS011;14307;51.718;8.938;2024-02-26T12:50:07;42.97;;;39.78;;
26690;SDS011;14307;51.718;8.938;2024-02-26T12:52:40;40.38;;;37.35;;
26690;SDS011;14307;51.718;8.938;2024-02-26T12:55:12;41.92;;;38.72;;
26690;SDS011;14307;51.718;8.938;2024-02-26T12:57:43;41.40;;;38.08;;
26690;SDS011;14307;51.718;8.938;2024-02-26T13:00:21;42.53;;;39.05;;
26690;SDS011;14307;51.718;8.938;2024-02-26T13:02:52;40.08;;;36.75;;
26690;SDS011;14307;51.718;8.938;2024-02-26T13:05:22;39.38;;;36.42;;
26690;SDS011;14307;51.718;8.938;2024-02-26T13:07:49;39.17;;;36.13;;
26690;SDS011;14307;51.718;8.938;2024-02-26T13:10:17;40.70;;;37.17;;
26690;SDS011;14307;51.718;8.938;2024-02-26T13:12:45;38.42;;;35.33;;
26690;SDS011;14307;51.718;8.938;2024-02-26T13:15:14;38.03;;;34.75;;
26690;SDS011;14307;51.718;8.938;2024-02-26T13:17:46;35.75;;;32.90;;
26690;SDS011;14307;51.718;8.938;2024-02-26T13:20:24;34.63;;;31.83;;
26690;SDS011;14307;51.718;8.938;2024-02-26T13:22:59;34.33;;;31.52;;
26690;SDS011;14307;51.718;8.938;2024-02-26T13:25:31;37.00;;;34.15;;
26690;SDS011;14307;51.718;8.938;2024-02-26T13:28:06;39.80;;;36.65;;
26690;SDS011;14307;51.718;8.938;2024-02-26T13:30:56;39.53;;;36.53;;
26690;SDS011;14307;51.718;8.938;2024-02-26T13:33:27;39.17;;;36.13;;
26690;SDS011;14307;51.718;8.938;2024-02-26T13:35:55;39.17;;;35.95;;
26690;SDS011;14307;51.718;8.938;2024-02-26T13:38:23;38.00;;;35.13;;
26690;SDS011;14307;51.718;8.938;2024-02-26T13:40:51;37.00;;;34.20;;
26690;SDS011;14307;51.718;8.938;2024-02-26T13:43:18;36.80;;;34.10;;
26690;SDS011;14307;51.718;8.938;2024-02-26T13:45:46;36.22;;;33.58;;
26690;SDS011;14307;51.718;8.938;2024-02-26T13:48:13;35.22;;;32.45;;
26690;SDS011;14307;51.718;8.938;2024-02-26T13:50:41;34.25;;;31.65;;
26690;SDS011;14307;51.718;8.938;2024-02-26T13:53:09;33.20;;;30.65;;
26690;SDS011;14307;51.718;8.938;2024-02-26T13:55:37;32.58;;;30.15;;
26690;SDS011;14307;51.718;8.938;2024-02-26T13:58:04;32.15;;;29.88;;
26690;SDS011;14307;51.718;8.938;2024-02-26T14:00:31;34.80;;;32.50;;
26690;SDS011;14307;51.718;8.938;2024-02-26T14:03:02;37.08;;;34.55;;
26690;SDS011;14307;51.718;8.938;2024-02-26T14:05:29;35.33;;;33.00;;
26690;SDS011;14307;51.718;8.938;2024-02-26T14:07:56;36.13;;;33.53;;
26690;SDS011;14307;51.718;8.938;2024-02-26T14:10:24;36.67;;;33.90;;
26690;SDS011;14307;51.718;8.938;2024-02-26T14:12:52;35.67;;;33.30;;
26690;SDS011;14307;51.718;8.938;2024-02-26T14:15:19;37.50;;;34.50;;
26690;SDS011;14307;51.718;8.938;2024-02-26T14:17:45;33.20;;;31.05;;
26690;SDS011;14307;51.718;8.938;2024-02-26T14:20:20;35.95;;;33.15;;
26690;SDS011;14307;51.718;8.938;2024-02-26T14:22:47;37.08;;;34.60;;
26690;SDS011;14307;51.718;8.938;2024-02-26T14:25:15;36.30;;;33.90;;
26690;SDS011;14307;51.718;8.938;2024-02-26T14:27:41;32.53;;;29.88;;
26690;SDS011;14307;51.718;8.938;2024-02-26T14:30:28;30.95;;;28.42;;
26690;SDS011;14307;51.718;8.938;2024-02-26T14:32:55;30.67;;;28.50;;